Time;durP1;ratioP1;P1;durP2;ratioP2;P2;SDS_P1;SDS_P2;PMS_P1;PMS_P2;Temp;Humidity;BMP_temperature;BMP_pressure;BME280_temperature;BME280_humidity;BME280_pressure;Samples;Min_cycle;Max_cycle;Signal;HPM_P1;HPM_P2
2022/03/07 00:01:11;;;;;;;3.17;1.75;;;;;;;0.18;89.53;94365.28;5049527;28;20217;-84
2022/03/07 00:03:38;;;;;;;4.57;3.03;;;;;;;0.20;89.38;94357.81;5049305;28;20227;-85
2022/03/07 00:06:06;;;;;;;2.67;1.98;;;;;;;0.23;89.15;94351.97;5049834;28;20212;-81
2022/03/07 00:08:33;;;;;;;4.25;1.75;;;;;;;0.14;88.93;94356.22;5049433;28;20207;-82
2022/03/07 00:11:02;;;;;;;2.92;2.25;;;;;;;0.17;89.11;94347.69;5034489;28;20271;-83
2022/03/07 00:13:28;;;;;;;5.15;2.10;;;;;;;0.17;88.82;94343.19;5029490;28;20200;-84
2022/03/07 00:15:57;;;;;;;5.22;1.20;;;;;;;0.25;88.42;94353.28;5029664;28;20224;-86
2022/03/07 00:18:24;;;;;;;2.85;1.50;;;;;;;0.26;88.23;94351.44;5028881;28;20224;-80
2022/03/07 00:20:51;;;;;;;4.60;2.10;;;;;;;0.21;88.08;94340.78;5033502;28;20208;-85
2022/03/07 00:23:19;;;;;;;1.27;1.00;;;;;;;0.29;88.29;94341.00;5041409;28;20580;-85
2022/03/07 00:25:47;;;;;;;3.60;1.67;;;;;;;0.27;88.03;94345.03;5053079;28;20222;-83
2022/03/07 00:28:16;;;;;;;5.13;3.05;;;;;;;0.27;88.47;94345.81;5044081;28;20694;-84
2022/03/07 00:30:43;;;;;;;5.47;2.50;;;;;;;0.27;87.55;94347.69;5032813;28;20216;-87
2022/03/07 00:33:10;;;;;;;5.30;2.30;;;;;;;0.29;88.27;94340.22;5033060;28;20219;-84
2022/03/07 00:35:37;;;;;;;6.70;2.20;;;;;;;0.30;88.79;94328.50;5032360;28;20216;-84
2022/03/07 00:38:04;;;;;;;3.97;2.40;;;;;;;0.29;89.15;94335.69;5033219;28;20208;-84
2022/03/07 00:40:34;;;;;;;7.13;3.28;;;;;;;0.22;89.28;94329.06;5032989;28;20215;-85
2022/03/07 00:43:01;;;;;;;3.03;1.25;;;;;;;0.23;89.87;94330.66;5043381;28;20257;-86
2022/03/07 00:45:28;;;;;;;2.28;1.70;;;;;;;0.26;90.08;94330.13;5049504;28;20244;-85
2022/03/07 00:47:55;;;;;;;4.85;1.92;;;;;;;0.18;89.87;94322.66;5034178;28;20208;-84
2022/03/07 00:50:24;;;;;;;6.70;2.45;;;;;;;0.21;90.23;94322.13;5033440;28;20224;-84
2022/03/07 00:52:51;;;;;;;4.38;2.10;;;;;;;0.17;90.31;94319.22;5033049;28;20208;-85
2022/03/07 00:55:18;;;;;;;3.58;1.67;;;;;;;0.17;89.97;94321.88;5032847;28;20337;-83
2022/03/07 00:57:46;;;;;;;2.95;1.67;;;;;;;0.17;90.21;94318.41;5033612;28;20295;-85
2022/03/07 01:00:14;;;;;;;5.05;1.65;;;;;;;0.17;90.38;94315.75;5038005;28;20294;-84
2022/03/07 01:02:41;;;;;;;7.93;2.33;;;;;;;0.11;89.85;94317.63;5053253;28;20208;-84
2022/03/07 01:05:09;;;;;;;4.32;1.92;;;;;;;0.02;90.39;94297.13;5052398;28;20566;-85
2022/03/07 01:07:37;;;;;;;7.35;2.80;;;;;;;0.08;90.37;94323.50;5040813;28;20679;-86
2022/03/07 01:10:05;;;;;;;5.93;2.58;;;;;;;0.10;90.39;94320.56;5032568;28;20624;-86
2022/03/07 01:12:32;;;;;;;3.38;2.03;;;;;;;0.13;90.61;94320.03;5033448;28;20660;-85
2022/03/07 01:15:00;;;;;;;4.18;2.30;;;;;;;0.10;90.58;94315.25;5032614;28;20223;-84
2022/03/07 01:17:27;;;;;;;5.78;2.25;;;;;;;0.09;90.83;94318.97;5033422;28;20571;-85
2022/03/07 01:19:55;;;;;;;7.85;3.67;;;;;;;0.10;91.45;94307.25;5032395;28;20224;-84
2022/03/07 01:22:22;;;;;;;4.00;2.20;;;;;;;0.08;91.48;94318.16;5035152;28;20210;-85
2022/03/07 01:24:49;;;;;;;4.43;2.58;;;;;;;0.05;92.12;94304.59;5053370;28;20275;-85
2022/03/07 01:27:16;;;;;;;4.80;3.35;;;;;;;0.12;92.39;94307.78;5053270;28;20637;-85
2022/03/07 01:29:43;;;;;;;2.63;2.13;;;;;;;0.16;92.08;94314.16;5046766;28;20208;-84
2022/03/07 01:32:14;;;;;;;8.70;3.45;;;;;;;0.13;91.61;94310.19;5032849;28;20215;-85
2022/03/07 01:34:41;;;;;;;4.88;2.70;;;;;;;0.08;91.85;94307.53;5040012;28;20294;-82
2022/03/07 01:37:08;;;;;;;5.43;2.63;;;;;;;0.09;92.10;94303.00;5053792;28;20580;-85
2022/03/07 01:39:36;;;;;;;7.35;2.97;;;;;;;-0.01;92.16;94293.97;5054139;28;20208;-83
2022/03/07 01:42:03;;;;;;;9.38;3.42;;;;;;;0.05;92.50;94301.94;5056006;28;20236;-82
2022/03/07 01:44:30;;;;;;;10.43;3.60;;;;;;;0.08;92.32;94307.53;5058457;28;20315;-83
2022/03/07 01:46:57;;;;;;;3.65;1.98;;;;;;;0.08;92.47;94304.06;5052653;28;20222;-83
2022/03/07 01:49:26;;;;;;;7.35;2.88;;;;;;;0.00;92.49;94295.53;5033475;28;20255;-82
2022/03/07 01:51:54;;;;;;;3.88;1.63;;;;;;;0.03;92.73;94298.75;5032861;28;20220;-82
2022/03/07 01:54:22;;;;;;;8.02;4.13;;;;;;;0.09;92.61;94295.00;5032512;28;20223;-84
2022/03/07 01:56:50;;;;;;;10.15;3.70;;;;;;;-0.03;92.47;94293.44;5036507;28;20673;-83
2022/03/07 01:59:20;;;;;;;7.90;3.58;;;;;;;-0.04;93.03;94294.50;5053093;28;20211;-84
2022/03/07 02:01:47;;;;;;;8.55;3.42;;;;;;;-0.04;92.93;94291.84;5053382;28;20237;-84
2022/03/07 02:04:15;;;;;;;4.45;1.35;;;;;;;0.04;93.02;94297.66;5052288;28;20238;-84
2022/03/07 02:06:45;;;;;;;3.10;2.33;;;;;;;-0.01;92.90;94288.66;5052327;28;20294;-83
2022/03/07 02:09:13;;;;;;;5.25;2.92;;;;;;;0.08;93.10;94298.75;5052145;28;20651;-83
2022/03/07 02:11:40;;;;;;;2.50;1.70;;;;;;;0.01;93.24;94293.69;5052165;28;20204;-85
2022/03/07 02:14:14;;;;;;;7.53;2.88;;;;;;;-0.03;93.18;94290.78;5052074;28;20202;-83
2022/03/07 02:16:42;;;;;;;6.07;2.42;;;;;;;0.07;93.20;94299.81;5039033;28;20206;-82
2022/03/07 02:19:09;;;;;;;7.70;3.50;;;;;;;0.03;93.23;94304.06;5052124;28;20561;-84
2022/03/07 02:21:39;;;;;;;4.95;2.17;;;;;;;0.10;93.54;94299.28;5052007;28;20253;-83
2022/03/07 02:24:08;;;;;;;4.10;2.15;;;;;;;0.04;93.03;94297.66;5066439;28;20222;-79
2022/03/07 02:26:35;;;;;;;5.53;1.80;;;;;;;0.00;93.06;94298.19;5051476;28;20678;-83
2022/03/07 02:29:02;;;;;;;4.07;2.47;;;;;;;-0.04;93.30;94299.84;5036759;28;20557;-81
2022/03/07 02:31:30;;;;;;;3.85;2.17;;;;;;;-0.07;93.33;94295.03;5032169;28;20208;-83
2022/03/07 02:33:57;;;;;;;4.40;1.95;;;;;;;-0.06;93.08;94299.31;5033516;28;20607;-82
2022/03/07 02:36:24;;;;;;;6.00;2.88;;;;;;;-0.07;93.20;94297.69;5051056;28;20214;-79
2022/03/07 02:38:51;;;;;;;6.97;3.33;;;;;;;-0.10;93.20;94300.91;5051581;28;20721;-82
2022/03/07 02:41:20;;;;;;;11.38;2.65;;;;;;;-0.05;93.36;94308.88;5040500;28;20224;-81
2022/03/07 02:43:47;;;;;;;2.85;1.83;;;;;;;-0.11;93.32;94296.63;5048874;28;20258;-83
2022/03/07 02:46:14;;;;;;;6.95;3.28;;;;;;;-0.09;93.56;94305.16;5051166;28;20586;-82
2022/03/07 02:48:41;;;;;;;7.43;3.05;;;;;;;-0.14;93.34;94305.19;5051559;28;20207;-82
2022/03/07 02:51:08;;;;;;;8.77;3.30;;;;;;;-0.08;93.61;94298.75;5050751;28;20208;-83
2022/03/07 02:53:35;;;;;;;10.18;3.92;;;;;;;-0.07;93.30;94305.69;5051414;28;20219;-82
2022/03/07 02:56:02;;;;;;;5.50;2.65;;;;;;;-0.07;93.56;94304.88;5051093;28;20235;-83
2022/03/07 02:58:31;;;;;;;6.45;3.35;;;;;;;-0.08;93.42;94306.75;5051144;28;20681;-84
2022/03/07 03:00:58;;;;;;;4.63;2.40;;;;;;;-0.11;93.73;94299.28;5051255;28;20503;-84
2022/03/07 03:03:24;;;;;;;4.03;1.77;;;;;;;-0.10;93.78;94311.53;5051304;28;20208;-85
2022/03/07 03:05:54;;;;;;;4.80;2.35;;;;;;;-0.03;93.73;94314.75;5051129;28;20227;-85
2022/03/07 03:08:21;;;;;;;8.40;3.20;;;;;;;-0.07;93.71;94311.00;5032650;28;20686;-83
2022/03/07 03:10:49;;;;;;;3.72;2.15;;;;;;;-0.06;93.71;94309.16;5030567;28;20212;-83
2022/03/07 03:13:17;;;;;;;6.55;3.17;;;;;;;-0.10;93.83;94306.22;5030770;28;20297;-83
2022/03/07 03:15:46;;;;;;;4.93;3.22;;;;;;;-0.05;93.62;94313.41;5030648;28;20234;-84
2022/03/07 03:18:13;;;;;;;5.85;2.95;;;;;;;-0.07;93.75;94318.19;5049914;28;20217;-83
2022/03/07 03:20:40;;;;;;;5.93;2.67;;;;;;;-0.03;93.96;94312.06;5050815;28;20215;-82
2022/03/07 03:23:07;;;;;;;8.38;3.55;;;;;;;-0.11;93.87;94320.59;5051943;28;20358;-81
2022/03/07 03:25:34;;;;;;;7.80;3.25;;;;;;;-0.04;93.98;94323.00;5050135;28;20673;-83
2022/03/07 03:28:01;;;;;;;3.88;2.53;;;;;;;-0.12;94.17;94321.66;5036270;28;20254;-83
2022/03/07 03:30:28;;;;;;;7.03;3.50;;;;;;;-0.12;94.33;94308.34;5050817;28;20221;-83
2022/03/07 03:32:56;;;;;;;5.38;2.22;;;;;;;-0.11;94.62;94309.94;5050906;28;20218;-83
2022/03/07 03:35:23;;;;;;;8.15;3.15;;;;;;;-0.08;94.72;94325.38;5050458;28;20674;-82
2022/03/07 03:37:51;;;;;;;9.60;3.22;;;;;;;-0.03;94.74;94312.06;5050008;28;20208;-83
2022/03/07 03:40:18;;;;;;;6.68;4.25;;;;;;;-0.07;94.66;94321.66;5049922;28;20203;-82
2022/03/07 03:42:46;;;;;;;9.90;4.45;;;;;;;0.02;94.60;94329.09;5049942;28;20250;-81
2022/03/07 03:45:14;;;;;;;6.60;4.07;;;;;;;-0.04;94.40;94315.81;5050413;28;20714;-83
2022/03/07 03:47:42;;;;;;;5.25;2.95;;;;;;;-0.04;94.22;94315.00;5050794;28;20223;-83
2022/03/07 03:50:13;;;;;;;3.90;2.75;;;;;;;0.00;94.11;94316.06;5050429;28;20243;-82
2022/03/07 03:52:40;;;;;;;3.85;2.65;;;;;;;-0.04;93.85;94315.81;5050710;28;20199;-82
2022/03/07 03:55:11;;;;;;;5.38;1.92;;;;;;;-0.02;93.98;94319.00;5053467;28;20231;-83
2022/03/07 03:57:38;;;;;;;6.55;2.92;;;;;;;-0.12;93.59;94318.19;5044816;28;20263;-84
2022/03/07 04:00:06;;;;;;;7.10;2.85;;;;;;;-0.11;93.69;94320.59;5051301;28;20214;-84
2022/03/07 04:02:33;;;;;;;5.57;3.47;;;;;;;-0.16;93.76;94328.59;5054931;28;20222;-84
2022/03/07 04:05:00;;;;;;;6.47;3.72;;;;;;;-0.14;93.81;94315.81;5054195;28;20234;-83
2022/03/07 04:07:28;;;;;;;6.13;2.58;;;;;;;-0.08;93.43;94330.72;5054787;28;20208;-82
2022/03/07 04:09:55;;;;;;;10.40;3.05;;;;;;;-0.08;93.59;94340.56;5054371;28;20203;-82
2022/03/07 04:12:22;;;;;;;5.97;2.30;;;;;;;-0.10;93.68;94322.19;5054196;28;20210;-82
2022/03/07 04:14:49;;;;;;;4.07;2.70;;;;;;;-0.09;93.25;94328.31;5036341;28;20211;-82
2022/03/07 04:17:16;;;;;;;1.70;1.33;;;;;;;-0.06;93.41;94327.78;5034594;28;20227;-84
2022/03/07 04:19:43;;;;;;;5.57;3.45;;;;;;;-0.03;93.46;94328.06;5034756;28;20212;-84
2022/03/07 04:22:10;;;;;;;6.93;3.38;;;;;;;0.08;93.42;94330.69;5045880;28;20215;-84
2022/03/07 04:24:39;;;;;;;8.23;3.78;;;;;;;0.09;92.86;94325.09;5050531;28;20543;-85
2022/03/07 04:27:06;;;;;;;3.55;2.25;;;;;;;0.03;92.67;94325.38;5046008;28;20227;-83
2022/03/07 04:29:34;;;;;;;9.98;3.35;;;;;;;0.07;92.48;94321.09;5052795;28;20299;-86
2022/03/07 04:32:01;;;;;;;7.05;3.15;;;;;;;0.03;92.74;94336.00;5054404;28;20207;-84
2022/03/07 04:34:29;;;;;;;8.18;4.05;;;;;;;0.03;93.07;94341.34;5054416;28;20218;-85
2022/03/07 04:36:56;;;;;;;10.43;4.13;;;;;;;-0.10;92.75;94332.84;5053829;28;20203;-85
2022/03/07 04:39:23;;;;;;;9.30;4.03;;;;;;;-0.01;93.26;94336.56;5053669;28;20215;-85
2022/03/07 04:41:52;;;;;;;6.55;3.63;;;;;;;0.04;93.23;94326.97;5053362;28;20376;-83
2022/03/07 04:44:19;;;;;;;9.27;4.47;;;;;;;0.19;93.01;94324.25;5052990;28;20700;-85
2022/03/07 04:46:46;;;;;;;8.63;3.65;;;;;;;0.25;92.25;94328.53;5054233;28;20234;-84
2022/03/07 04:49:13;;;;;;;6.75;3.60;;;;;;;0.21;91.93;94332.78;5045724;28;20220;-84
2022/03/07 04:51:48;;;;;;;7.93;3.40;;;;;;;0.26;91.69;94335.44;5047728;28;20498;-85
2022/03/07 04:54:16;;;;;;;7.38;3.53;;;;;;;0.24;91.85;94333.06;5033321;28;20224;-83
2022/03/07 04:56:46;;;;;;;2.42;1.95;;;;;;;0.32;91.18;94334.34;5034036;28;20216;-84
2022/03/07 04:59:15;;;;;;;5.38;3.17;;;;;;;0.37;91.66;94336.22;5034339;28;20254;-86
2022/03/07 05:01:42;;;;;;;7.30;3.45;;;;;;;0.31;91.29;94332.75;5035527;28;20215;-88
2022/03/07 05:04:09;;;;;;;6.93;2.63;;;;;;;0.23;91.48;94326.13;5038005;28;20656;-85
2022/03/07 05:06:36;;;;;;;6.18;2.90;;;;;;;0.28;91.50;94330.63;5053218;28;20660;-84
2022/03/07 05:09:04;;;;;;;3.08;2.50;;;;;;;0.34;91.05;94335.69;5053886;28;20240;-85
2022/03/07 05:11:31;;;;;;;4.97;3.13;;;;;;;0.37;90.81;94342.34;5047918;28;20219;-85
2022/03/07 05:13:58;;;;;;;4.82;2.88;;;;;;;0.38;90.50;94341.28;5044530;28;20208;-85
2022/03/07 05:16:26;;;;;;;9.90;3.78;;;;;;;0.27;90.71;94337.06;5053711;28;20686;-85
2022/03/07 05:18:53;;;;;;;2.22;1.70;;;;;;;0.23;90.87;94335.97;5052844;28;20211;-85
2022/03/07 05:21:20;;;;;;;2.97;1.88;;;;;;;0.15;91.45;94333.84;5053018;28;20688;-85
2022/03/07 05:23:50;;;;;;;2.65;1.85;;;;;;;0.19;91.10;94337.59;5052991;28;20772;-86
2022/03/07 05:26:17;;;;;;;5.93;3.80;;;;;;;0.23;91.30;94330.66;5053280;28;20211;-88
2022/03/07 05:28:44;;;;;;;8.05;3.90;;;;;;;0.19;91.55;94334.91;5052767;28;20211;-87
2022/03/07 05:31:13;;;;;;;3.03;1.95;;;;;;;0.16;91.68;94340.78;5052789;28;20559;-86
2022/03/07 05:33:42;;;;;;;9.05;3.95;;;;;;;0.02;92.37;94337.06;5052517;28;20249;-89
2022/03/07 05:36:09;;;;;;;5.20;2.83;;;;;;;0.16;92.17;94335.44;5051542;28;20535;-87
2022/03/07 05:38:36;;;;;;;18.98;6.35;;;;;;;0.11;92.48;94338.16;5052588;28;20220;-88
2022/03/07 05:41:04;;;;;;;5.72;3.50;;;;;;;0.16;92.56;94330.13;5050957;28;20220;-84
2022/03/07 05:43:34;;;;;;;6.95;3.38;;;;;;;0.27;92.55;94337.06;5047475;28;20231;-85
2022/03/07 05:46:01;;;;;;;6.68;2.75;;;;;;;0.42;92.18;94338.84;5051256;28;20227;-84
2022/03/07 05:48:28;;;;;;;3.40;2.08;;;;;;;0.45;91.95;94335.66;5051247;28;20200;-84
2022/03/07 05:50:56;;;;;;;5.70;3.15;;;;;;;0.47;91.48;94336.97;5052281;28;20206;-83
2022/03/07 05:53:23;;;;;;;4.85;2.60;;;;;;;0.47;91.92;94320.19;5052748;28;20318;-83
2022/03/07 05:55:50;;;;;;;13.77;4.30;;;;;;;0.80;91.42;94334.72;5052570;28;20199;-83
2022/03/07 05:58:17;;;;;;;10.10;4.50;;;;;;;0.99;90.79;94339.16;5051907;28;20685;-83
2022/03/07 06:00:45;;;;;;;7.65;4.65;;;;;;;1.22;90.14;94337.69;5051862;28;20203;-84
2022/03/07 06:03:12;;;;;;;8.63;4.55;;;;;;;1.35;88.88;94329.09;5052308;28;20203;-83
2022/03/07 06:05:41;;;;;;;9.52;4.70;;;;;;;1.05;88.73;94327.41;5039744;28;20247;-82
2022/03/07 06:08:10;;;;;;;8.45;4.10;;;;;;;0.93;89.42;94337.59;5045726;28;20215;-84
2022/03/07 06:10:37;;;;;;;7.72;4.32;;;;;;;1.01;88.94;94346.88;5039206;28;20203;-85
2022/03/07 06:13:04;;;;;;;5.25;3.30;;;;;;;0.78;89.82;94342.19;5050152;28;20280;-84
2022/03/07 06:15:32;;;;;;;8.75;4.35;;;;;;;0.64;90.14;94342.78;5051278;28;20204;-84
2022/03/07 06:17:59;;;;;;;4.95;2.70;;;;;;;0.75;90.25;94342.72;5051106;28;20219;-85
2022/03/07 06:20:26;;;;;;;6.72;4.05;;;;;;;0.69;90.36;94341.94;5051193;28;20195;-82
2022/03/07 06:22:54;;;;;;;9.18;4.93;;;;;;;0.74;90.32;94346.47;5051575;28;20666;-87
2022/03/07 06:25:23;;;;;;;13.35;6.57;;;;;;;0.79;89.96;94343.78;5051768;28;20326;-86
2022/03/07 06:27:50;;;;;;;6.53;3.80;;;;;;;0.66;89.67;94340.66;5046463;28;20208;-83
2022/03/07 06:30:20;;;;;;;6.53;2.65;;;;;;;0.61;90.50;94359.31;5031393;28;20207;-80
2022/03/07 06:32:46;;;;;;;3.08;1.98;;;;;;;0.56;89.61;94346.00;5031668;28;20215;-78
2022/03/07 06:35:14;;;;;;;1.02;1.00;;;;;;;0.42;90.00;94350.28;5030705;28;20227;-77
2022/03/07 06:37:47;;;;;;;1.95;1.55;;;;;;;0.58;90.61;94351.84;5034454;28;20571;-81
2022/03/07 06:40:15;;;;;;;7.50;3.28;;;;;;;0.44;90.35;94350.84;5038807;28;20200;-83
2022/03/07 06:42:44;;;;;;;2.90;1.60;;;;;;;0.38;90.67;94354.59;5051103;28;20578;-80
2022/03/07 06:45:13;;;;;;;3.97;2.22;;;;;;;0.39;90.38;94350.88;5050859;28;20207;-83
2022/03/07 06:47:41;;;;;;;5.43;2.38;;;;;;;0.37;90.35;94341.53;5051006;28;20281;-81
2022/03/07 06:50:09;;;;;;;3.85;2.13;;;;;;;0.41;90.11;94347.94;5050960;28;20206;-84
2022/03/07 06:52:39;;;;;;;1.85;1.25;;;;;;;0.40;89.66;94341.81;5049403;28;20392;-86
2022/03/07 06:55:07;;;;;;;2.55;1.83;;;;;;;0.47;89.23;94336.97;5051001;28;20243;-84
2022/03/07 06:57:34;;;;;;;1.25;1.13;;;;;;;0.78;89.04;94342.19;5040869;28;20203;-83
2022/03/07 07:00:03;;;;;;;2.92;1.77;;;;;;;1.02;88.05;94343.13;5031271;28;20298;-79
2022/03/07 07:02:35;;;;;;;3.15;2.17;;;;;;;1.09;86.87;94348.19;5030990;28;20216;-79
2022/03/07 07:05:03;;;;;;;4.43;2.78;;;;;;;1.05;87.17;94354.06;5030875;28;20200;-79
2022/03/07 07:07:30;;;;;;;5.28;3.47;;;;;;;1.02;87.15;94353.81;5031392;28;20236;-79
2022/03/07 07:09:58;;;;;;;3.97;2.53;;;;;;;0.96;87.30;94349.56;5049783;28;20208;-78
2022/03/07 07:12:25;;;;;;;2.63;1.98;;;;;;;1.05;87.16;94342.59;5049914;28;20662;-78
2022/03/07 07:14:52;;;;;;;5.78;2.83;;;;;;;0.86;87.06;94333.63;5051109;28;20303;-78
2022/03/07 07:17:20;;;;;;;2.47;1.75;;;;;;;0.90;86.62;94345.34;5050209;28;20220;-79
2022/03/07 07:19:47;;;;;;;3.05;2.25;;;;;;;1.09;86.88;94348.97;5050867;28;20211;-79
2022/03/07 07:22:14;;;;;;;5.63;3.33;;;;;;;1.23;86.34;94349.94;5050503;28;20211;-80
2022/03/07 07:24:41;;;;;;;9.48;4.82;;;;;;;1.47;85.98;94350.06;5049953;28;20592;-80
2022/03/07 07:27:08;;;;;;;3.53;2.67;;;;;;;1.81;83.86;94350.06;5038033;28;20242;-80
2022/03/07 07:29:36;;;;;;;6.78;3.67;;;;;;;1.72;83.33;94341.88;5030606;28;20251;-81
2022/03/07 07:32:03;;;;;;;6.07;3.05;;;;;;;1.58;84.17;94353.47;5030519;28;20861;-80
2022/03/07 07:34:32;;;;;;;7.90;4.22;;;;;;;1.82;84.28;94357.00;5031045;28;20208;-80
2022/03/07 07:36:59;;;;;;;3.85;2.42;;;;;;;1.96;83.22;94341.94;5030739;28;20258;-81
2022/03/07 07:39:26;;;;;;;5.72;3.30;;;;;;;2.01;82.34;94355.25;5030803;28;20212;-81
2022/03/07 07:41:53;;;;;;;4.72;2.45;;;;;;;2.23;82.13;94356.66;5031920;28;20234;-82
2022/03/07 07:44:20;;;;;;;6.00;3.50;;;;;;;2.35;82.33;94365.09;5050646;28;20226;-82
2022/03/07 07:46:47;;;;;;;10.55;3.88;;;;;;;2.41;81.58;94353.28;5050631;28;20632;-82
2022/03/07 07:49:14;;;;;;;6.20;3.20;;;;;;;2.35;80.40;94365.09;5049584;28;20215;-84
2022/03/07 07:51:43;;;;;;;7.18;3.55;;;;;;;2.23;81.34;94362.00;5050113;28;20227;-85
2022/03/07 07:54:10;;;;;;;4.70;2.15;;;;;;;2.00;81.62;94356.34;5049827;28;20207;-83
2022/03/07 07:56:37;;;;;;;6.85;2.90;;;;;;;1.96;80.65;94362.50;5050339;28;20208;-81
2022/03/07 07:59:04;;;;;;;5.95;3.05;;;;;;;2.11;82.06;94371.19;5050806;28;20212;-83
2022/03/07 08:01:30;;;;;;;8.50;4.28;;;;;;;2.47;80.91;94368.97;5049997;28;20214;-85
2022/03/07 08:03:57;;;;;;;4.68;3.08;;;;;;;2.08;80.80;94366.41;5049672;28;20233;-83
2022/03/07 08:06:24;;;;;;;4.93;2.80;;;;;;;2.38;80.61;94372.53;5049489;28;20608;-82
2022/03/07 08:08:53;;;;;;;6.35;3.35;;;;;;;2.43;80.24;94367.97;5050739;28;20199;-82
2022/03/07 08:11:19;;;;;;;6.40;3.42;;;;;;;2.46;81.31;94366.59;5050600;28;20218;-81
2022/03/07 08:13:46;;;;;;;7.55;4.18;;;;;;;2.94;80.13;94361.25;5050355;28;20204;-82
2022/03/07 08:16:13;;;;;;;4.78;2.78;;;;;;;3.33;78.83;94369.03;5049857;28;20216;-81
2022/03/07 08:18:40;;;;;;;7.30;3.95;;;;;;;3.78;78.88;94356.88;5048912;28;20200;-83
2022/03/07 08:21:07;;;;;;;6.88;2.97;;;;;;;3.10;76.89;94363.44;5050570;28;20544;-82
2022/03/07 08:23:34;;;;;;;7.90;3.58;;;;;;;2.94;77.92;94370.06;5050888;28;20224;-81
2022/03/07 08:26:02;;;;;;;7.15;3.17;;;;;;;2.69;79.53;94365.81;5049802;28;20725;-80
2022/03/07 08:28:29;;;;;;;8.65;3.50;;;;;;;2.39;79.28;94371.47;5050760;28;20207;-80
2022/03/07 08:30:56;;;;;;;6.82;3.28;;;;;;;2.60;80.36;94369.41;5049768;28;20212;-80
2022/03/07 08:33:22;;;;;;;3.75;2.03;;;;;;;2.90;79.16;94361.00;5039764;28;20238;-79
2022/03/07 08:35:50;;;;;;;4.82;3.13;;;;;;;2.73;79.05;94369.47;5030604;28;20204;-81
2022/03/07 08:38:17;;;;;;;3.25;1.83;;;;;;;2.62;79.25;94365.34;5030763;28;20232;-79
2022/03/07 08:40:44;;;;;;;4.63;2.70;;;;;;;2.78;80.41;94374.78;5032512;28;20228;-81
2022/03/07 08:43:12;;;;;;;4.03;2.50;;;;;;;2.71;79.57;94363.66;5046253;28;20597;-80
2022/03/07 08:45:39;;;;;;;9.00;4.68;;;;;;;2.67;78.92;94378.66;5053330;28;20679;-82
2022/03/07 08:48:06;;;;;;;3.67;2.00;;;;;;;2.39;79.12;94374.94;5054083;28;20239;-81
2022/03/07 08:50:33;;;;;;;5.80;2.63;;;;;;;2.11;80.60;94379.22;5047110;28;20228;-81
2022/03/07 08:53:00;;;;;;;7.13;3.22;;;;;;;1.97;81.47;94388.16;5034075;28;20352;-80
2022/03/07 08:55:27;;;;;;;10.32;3.67;;;;;;;2.19;80.41;94377.03;5033822;28;20567;-80
2022/03/07 08:57:54;;;;;;;5.72;2.92;;;;;;;2.47;80.51;94376.19;5033728;28;20212;-81
2022/03/07 09:00:22;;;;;;;7.38;3.80;;;;;;;2.71;80.91;94369.00;5033219;28;20286;-81
2022/03/07 09:02:49;;;;;;;6.55;3.20;;;;;;;3.01;79.88;94378.53;5033409;28;20208;-81
2022/03/07 09:05:16;;;;;;;8.32;4.40;;;;;;;3.18;78.77;94372.69;5033612;28;20343;-81
2022/03/07 09:07:43;;;;;;;8.77;4.03;;;;;;;3.32;78.33;94378.94;5033866;28;20242;-80
2022/03/07 09:10:10;;;;;;;6.57;3.60;;;;;;;3.14;78.96;94379.72;5040453;28;20215;-80
2022/03/07 09:12:37;;;;;;;5.97;3.85;;;;;;;3.07;78.46;94376.59;5053823;28;20204;-81
2022/03/07 09:15:06;;;;;;;7.18;3.90;;;;;;;2.92;78.67;94377.56;5053074;28;20206;-80
2022/03/07 09:17:34;;;;;;;7.60;3.42;;;;;;;2.77;78.73;94378.53;5053376;28;20254;-80
2022/03/07 09:20:01;;;;;;;8.52;4.97;;;;;;;2.57;79.35;94362.72;5032914;28;20208;-79
2022/03/07 09:22:29;;;;;;;7.90;4.53;;;;;;;2.52;81.40;94370.81;5035828;28;20216;-80
2022/03/07 09:24:56;;;;;;;8.73;4.80;;;;;;;2.52;81.87;94365.44;5045460;28;20675;-79
2022/03/07 09:27:22;;;;;;;11.40;7.03;;;;;;;2.12;83.03;94378.13;5032374;28;20236;-79
2022/03/07 09:29:49;;;;;;;10.15;5.22;;;;;;;1.89;83.73;94370.84;5033164;28;20208;-78
2022/03/07 09:32:16;;;;;;;14.80;6.78;;;;;;;1.78;84.36;94374.66;5032830;28;20204;-78
2022/03/07 09:34:45;;;;;;;8.05;4.10;;;;;;;1.81;84.11;94376.78;5032694;28;20216;-79
2022/03/07 09:37:12;;;;;;;9.05;4.93;;;;;;;1.73;84.65;94375.50;5032536;28;20576;-80
2022/03/07 09:39:39;;;;;;;6.53;2.72;;;;;;;1.70;84.05;94372.59;5032785;28;20238;-78
2022/03/07 09:42:06;;;;;;;9.45;5.45;;;;;;;2.18;84.58;94364.75;5035003;28;20735;-78
2022/03/07 09:44:33;;;;;;;9.88;5.20;;;;;;;2.51;83.39;94358.50;5052667;28;20212;-79
2022/03/07 09:47:01;;;;;;;9.00;5.32;;;;;;;2.80;82.12;94355.78;5049529;28;20236;-79
2022/03/07 09:49:28;;;;;;;6.47;4.22;;;;;;;2.81;80.97;94355.50;5033011;28;20219;-79
2022/03/07 09:51:56;;;;;;;16.10;7.15;;;;;;;2.57;80.81;94362.72;5031327;28;20235;-79
2022/03/07 09:54:24;;;;;;;8.65;4.50;;;;;;;2.94;80.58;94354.00;5032512;28;20219;-78
2022/03/07 09:56:52;;;;;;;10.90;4.65;;;;;;;3.32;79.92;94352.16;5032840;28;20278;-79
2022/03/07 09:59:20;;;;;;;8.13;3.80;;;;;;;3.34;79.02;94350.00;5031913;28;20208;-79
2022/03/07 10:01:59;;;;;;;6.55;4.18;;;;;;;3.61;78.31;94353.91;5032656;28;20216;-78
2022/03/07 10:04:26;;;;;;;7.13;3.92;;;;;;;3.91;77.34;94345.41;5032535;28;20295;-78
2022/03/07 10:06:53;;;;;;;5.97;3.17;;;;;;;3.63;76.95;94357.09;5032491;28;20243;-78
2022/03/07 10:09:22;;;;;;;6.45;3.50;;;;;;;3.56;77.25;94355.56;5031932;28;20204;-80
2022/03/07 10:11:54;;;;;;;8.15;5.85;;;;;;;3.24;77.71;94360.84;5031864;28;20590;-79
2022/03/07 10:14:31;;;;;;;11.02;4.13;;;;;;;2.67;79.51;94365.28;5047230;28;20207;-79
2022/03/07 10:16:59;;;;;;;7.47;3.80;;;;;;;2.84;79.60;94357.63;5052371;28;20294;-80
2022/03/07 10:19:27;;;;;;;10.23;3.65;;;;;;;3.00;79.51;94360.09;5051965;28;20208;-80
2022/03/07 10:21:54;;;;;;;7.63;4.40;;;;;;;3.13;78.81;94356.72;5050486;28;20555;-79
2022/03/07 10:24:31;;;;;;;9.15;3.97;;;;;;;2.98;79.17;94356.91;5050905;28;20273;-78
2022/03/07 10:26:58;;;;;;;10.45;4.55;;;;;;;3.37;78.78;94354.78;5051307;28;20263;-80
2022/03/07 10:29:25;;;;;;;6.95;4.00;;;;;;;3.77;77.95;94347.25;5051584;28;20211;-78
2022/03/07 10:31:52;;;;;;;7.78;4.38;;;;;;;3.91;76.52;94348.09;5051380;28;20204;-79
2022/03/07 10:34:19;;;;;;;8.27;4.80;;;;;;;3.80;75.34;94346.66;5051816;28;20230;-80
2022/03/07 10:36:47;;;;;;;9.10;5.65;;;;;;;3.80;77.22;94352.03;5038396;28;20219;-79
2022/03/07 10:39:16;;;;;;;8.27;4.80;;;;;;;3.96;76.32;94348.03;5031141;28;20204;-79
2022/03/07 10:41:46;;;;;;;14.23;5.80;;;;;;;4.08;75.77;94348.34;5031340;28;20263;-79
2022/03/07 10:44:25;;;;;;;12.40;6.70;;;;;;;3.44;77.34;94347.19;5038736;28;20216;-78
2022/03/07 10:46:52;;;;;;;13.23;7.20;;;;;;;3.15;77.90;94349.19;5051259;28;20234;-80
2022/03/07 10:49:21;;;;;;;8.02;5.07;;;;;;;2.94;79.06;94347.88;5050809;28;20211;-80
2022/03/07 10:51:55;;;;;;;9.98;6.05;;;;;;;2.67;77.89;94343.91;5050704;28;20322;-78
2022/03/07 10:54:23;;;;;;;17.30;6.28;;;;;;;2.93;79.31;94348.94;5050666;28;20211;-79
2022/03/07 10:56:52;;;;;;;11.63;6.57;;;;;;;2.53;80.12;94345.66;5051300;28;20235;-80
2022/03/07 10:59:29;;;;;;;11.05;6.07;;;;;;;2.43;81.00;94345.78;5051096;28;20732;-79
2022/03/07 11:01:59;;;;;;;4.13;3.03;;;;;;;2.33;79.83;94337.84;5050665;28;20619;-78
2022/03/07 11:04:26;;;;;;;12.63;6.20;;;;;;;2.34;80.13;94345.59;5050828;28;20242;-79
2022/03/07 11:06:54;;;;;;;9.35;5.57;;;;;;;2.50;80.44;94335.53;5050725;28;20709;-78
2022/03/07 11:09:21;;;;;;;11.52;5.80;;;;;;;2.64;80.15;94341.78;5050960;28;20200;-77
2022/03/07 11:11:50;;;;;;;6.53;3.67;;;;;;;2.44;79.26;94342.03;5050684;28;20207;-77
2022/03/07 11:14:19;;;;;;;10.35;5.22;;;;;;;2.20;80.36;94336.63;5038000;28;20212;-77
2022/03/07 11:16:49;;;;;;;10.95;5.88;;;;;;;2.32;79.52;94333.59;5050782;28;20200;-78
2022/03/07 11:19:18;;;;;;;7.78;4.95;;;;;;;2.25;80.90;94333.13;5049923;28;20542;-78
2022/03/07 11:21:49;;;;;;;9.55;5.25;;;;;;;2.16;80.89;94337.50;5030983;28;20204;-78
2022/03/07 11:24:17;;;;;;;8.43;4.25;;;;;;;2.25;79.79;94344.63;5047798;28;20242;-78
2022/03/07 11:26:44;;;;;;;10.20;5.03;;;;;;;2.09;79.90;94341.28;5050610;28;20305;-79
2022/03/07 11:29:11;;;;;;;9.55;4.75;;;;;;;2.21;80.16;94335.56;5050886;28;20203;-79
2022/03/07 11:31:39;;;;;;;7.57;4.28;;;;;;;2.33;80.37;94324.47;5050093;28;20630;-78
2022/03/07 11:34:08;;;;;;;9.52;4.95;;;;;;;2.21;80.55;94326.75;5050563;28;20678;-78
2022/03/07 11:36:39;;;;;;;6.07;3.45;;;;;;;1.96;79.62;94331.25;5050715;28;20204;-77
2022/03/07 11:39:07;;;;;;;4.57;2.72;;;;;;;1.87;80.48;94327.59;5051504;28;20202;-78
2022/03/07 11:41:37;;;;;;;6.30;3.50;;;;;;;1.98;81.12;94331.78;5050889;28;20199;-78